createdAt,value
2019-03-09T00:00:15.272Z,4.98
2019-03-09T00:02:48.833Z,5.18
2019-03-09T00:05:23.782Z,5.00
2019-03-09T00:07:58.589Z,4.98
2019-03-09T00:10:31.888Z,5.19
2019-03-09T00:13:05.683Z,5.18
2019-03-09T00:15:41.108Z,5.31
2019-03-09T00:18:14.626Z,5.17
2019-03-09T00:20:48.436Z,5.11
2019-03-09T00:23:23.559Z,5.14
2019-03-09T00:25:58.313Z,4.96
2019-03-09T00:28:33.611Z,5.14
2019-03-09T00:31:07.218Z,5.27
2019-03-09T00:33:40.828Z,5.33
2019-03-09T00:36:16.263Z,5.10
2019-03-09T00:38:49.608Z,5.36
2019-03-09T00:41:23.917Z,5.87
2019-03-09T00:43:57.935Z,5.85
2019-03-09T00:46:31.755Z,5.42
2019-03-09T00:49:05.593Z,5.46
2019-03-09T00:51:39.443Z,5.74
2019-03-09T00:54:15.282Z,6.23
2019-03-09T00:56:49.434Z,5.93
2019-03-09T00:59:24.064Z,6.24
2019-03-09T01:02:00.660Z,5.74
2019-03-09T01:04:36.303Z,5.52
2019-03-09T01:07:10.790Z,5.56
2019-03-09T01:09:45.268Z,5.59
2019-03-09T01:12:21.408Z,5.69
2019-03-09T01:14:57.758Z,6.33
2019-03-09T01:17:31.815Z,6.45
2019-03-09T01:20:06.608Z,7.05
2019-03-09T01:22:41.659Z,6.66
2019-03-09T01:25:18.220Z,6.38
2019-03-09T01:27:52.208Z,6.47
2019-03-09T01:30:28.042Z,6.58
2019-03-09T01:33:02.555Z,6.14
2019-03-09T01:35:37.367Z,6.11
2019-03-09T01:38:14.069Z,6.51
2019-03-09T01:40:50.437Z,6.65
2019-03-09T01:43:25.801Z,7.06
2019-03-09T01:46:02.199Z,6.90
2019-03-09T01:48:37.154Z,6.81
2019-03-09T01:51:11.651Z,6.87
2019-03-09T01:53:45.724Z,6.90
2019-03-09T01:56:19.676Z,6.66
2019-03-09T01:58:54.822Z,6.51
2019-03-09T02:01:28.693Z,6.67
2019-03-09T02:04:02.204Z,7.00
2019-03-09T02:06:36.242Z,6.79
2019-03-09T02:09:11.474Z,6.52
2019-03-09T02:11:45.773Z,6.91
2019-03-09T02:14:20.371Z,6.63
2019-03-09T02:16:54.718Z,6.92
2019-03-09T02:19:29.148Z,7.00
2019-03-09T02:22:08.613Z,7.34
2019-03-09T02:24:43.942Z,7.74
2019-03-09T02:27:18.854Z,7.60
2019-03-09T02:29:52.797Z,7.78
2019-03-09T02:32:27.426Z,8.46
2019-03-09T02:35:05.294Z,7.55
2019-03-09T02:37:40.321Z,7.54
2019-03-09T02:40:15.580Z,7.63
2019-03-09T02:42:51.442Z,8.38
2019-03-09T02:45:27.113Z,8.08
2019-03-09T02:48:02.790Z,7.78
2019-03-09T02:50:38.586Z,7.52
2019-03-09T02:53:16.193Z,7.65
2019-03-09T02:55:55.180Z,7.54
2019-03-09T02:58:30.471Z,7.36
2019-03-09T03:01:06.490Z,7.24
2019-03-09T03:03:46.488Z,7.33
2019-03-09T03:06:26.430Z,7.43
2019-03-09T03:09:02.276Z,7.80
2019-03-09T03:11:37.660Z,7.66
2019-03-09T03:14:15.251Z,7.65
2019-03-09T03:16:51.608Z,7.43
2019-03-09T03:19:27.088Z,7.29
2019-03-09T03:22:01.757Z,7.08
2019-03-09T03:24:37.393Z,7.14
2019-03-09T03:27:12.147Z,6.78
2019-03-09T03:29:46.781Z,7.49
2019-03-09T03:32:21.179Z,7.35
2019-03-09T03:34:55.804Z,7.35
2019-03-09T03:37:36.208Z,7.60
2019-03-09T03:40:17.290Z,7.66
2019-03-09T03:42:51.306Z,7.17
2019-03-09T03:45:26.537Z,7.59
2019-03-09T03:48:01.327Z,8.08
2019-03-09T03:50:35.390Z,8.35
2019-03-09T03:53:11.225Z,8.03
2019-03-09T03:55:44.746Z,7.97
2019-03-09T03:58:20.305Z,7.81
2019-03-09T04:00:55.742Z,7.81
2019-03-09T04:03:31.617Z,8.15
2019-03-09T04:06:25.492Z,7.73
2019-03-09T04:08:59.912Z,7.78
2019-03-09T04:11:34.436Z,7.86
2019-03-09T04:14:11.917Z,7.71
2019-03-09T04:16:48.598Z,7.77
2019-03-09T04:19:23.915Z,7.36
2019-03-09T04:21:59.629Z,7.94
2019-03-09T04:24:36.288Z,8.12
2019-03-09T04:27:11.499Z,8.08
2019-03-09T04:29:46.493Z,8.10
2019-03-09T04:32:23.545Z,8.37
2019-03-09T04:35:03.613Z,8.39
2019-03-09T04:37:38.717Z,8.38
2019-03-09T04:40:15.672Z,8.31
2019-03-09T04:42:52.458Z,8.61
2019-03-09T04:45:29.352Z,8.26
2019-03-09T04:48:04.410Z,8.33
2019-03-09T04:50:43.041Z,8.04
2019-03-09T04:53:18.165Z,8.45
2019-03-09T04:55:55.060Z,8.28
2019-03-09T04:58:30.558Z,8.18
2019-03-09T05:01:04.552Z,8.22
2019-03-09T05:03:38.577Z,8.22
2019-03-09T05:06:12.702Z,8.17
2019-03-09T05:09:06.927Z,8.14
2019-03-09T05:11:52.157Z,8.39
2019-03-09T05:14:27.085Z,8.57
2019-03-09T05:17:06.553Z,8.04
2019-03-09T05:19:41.318Z,8.46
2019-03-09T05:22:19.679Z,8.60
2019-03-09T05:24:56.013Z,8.08
2019-03-09T05:27:30.899Z,8.44
2019-03-09T05:30:11.484Z,8.26
2019-03-09T05:32:46.655Z,8.51
2019-03-09T05:35:22.467Z,9.06
2019-03-09T05:37:57.362Z,8.31
2019-03-09T05:40:37.782Z,8.31
2019-03-09T05:43:16.574Z,8.46
2019-03-09T05:45:52.920Z,8.26
2019-03-09T05:48:27.621Z,8.32
2019-03-09T05:51:02.097Z,8.11
2019-03-09T05:53:37.502Z,8.45
2019-03-09T05:56:14.508Z,8.26
2019-03-09T05:58:50.600Z,8.02
2019-03-09T06:01:27.660Z,7.92
2019-03-09T06:04:03.661Z,7.87
2019-03-09T06:06:38.481Z,8.28
2019-03-09T06:09:13.539Z,8.53
2019-03-09T06:11:52.001Z,8.55
2019-03-09T06:14:30.508Z,8.62
2019-03-09T06:17:07.809Z,8.74
2019-03-09T06:19:43.075Z,8.60
2019-03-09T06:22:23.069Z,8.43
2019-03-09T06:24:59.233Z,8.47
2019-03-09T06:27:36.391Z,8.31
2019-03-09T06:30:15.150Z,8.00
2019-03-09T06:33:14.709Z,8.28
2019-03-09T06:35:53.183Z,7.82
2019-03-09T06:38:43.777Z,7.70
2019-03-09T06:41:41.922Z,7.51
2019-03-09T06:44:19.980Z,7.69
2019-03-09T06:46:55.192Z,7.70
2019-03-09T06:49:31.290Z,7.34
2019-03-09T06:52:09.624Z,7.60
2019-03-09T06:54:44.946Z,7.42
2019-03-09T06:57:22.166Z,7.72
2019-03-09T07:00:02.199Z,7.77
2019-03-09T07:02:39.887Z,7.60
2019-03-09T07:05:18.043Z,7.47
2019-03-09T07:07:53.082Z,7.44
2019-03-09T07:10:28.536Z,7.11
2019-03-09T07:13:03.783Z,7.23
2019-03-09T07:15:44.548Z,7.38
2019-03-09T07:18:26.202Z,7.21
2019-03-09T07:21:08.913Z,7.03
2019-03-09T07:23:57.174Z,6.78
2019-03-09T07:26:39.930Z,6.91
2019-03-09T07:29:17.789Z,6.90
2019-03-09T07:31:52.948Z,7.14
2019-03-09T07:34:31.398Z,6.94
2019-03-09T07:37:12.667Z,7.04
2019-03-09T07:39:51.481Z,7.01
2019-03-09T07:42:30.369Z,6.99
2019-03-09T07:45:07.478Z,7.18
2019-03-09T07:47:48.698Z,7.07
2019-03-09T07:50:25.655Z,7.14
2019-03-09T07:53:03.136Z,7.23
2019-03-09T07:55:47.175Z,7.29
2019-03-09T07:58:27.182Z,7.34
2019-03-09T08:01:02.689Z,7.28
2019-03-09T08:03:38.165Z,7.21
2019-03-09T08:06:16.038Z,7.24
2019-03-09T08:09:02.953Z,7.30
2019-03-09T08:11:40.254Z,7.11
2019-03-09T08:14:27.181Z,6.94
2019-03-09T08:17:05.691Z,6.99
2019-03-09T08:19:43.661Z,6.85
2019-03-09T08:22:23.284Z,6.76
2019-03-09T08:25:03.579Z,6.73
2019-03-09T08:27:43.372Z,6.70
2019-03-09T08:30:20.584Z,6.71
2019-03-09T08:32:57.666Z,6.51
2019-03-09T08:35:32.994Z,6.67
2019-03-09T08:38:08.461Z,6.68
2019-03-09T08:40:44.572Z,6.66
2019-03-09T08:43:19.467Z,6.50
2019-03-09T08:45:54.918Z,6.34
2019-03-09T08:48:32.143Z,6.31
2019-03-09T08:51:10.061Z,6.31
2019-03-09T08:53:47.109Z,6.24
2019-03-09T08:56:22.560Z,6.16
2019-03-09T08:58:59.427Z,5.90
2019-03-09T09:01:35.718Z,5.98
2019-03-09T09:04:16.765Z,6.01
2019-03-09T09:06:55.847Z,5.96
2019-03-09T09:09:31.890Z,5.82
2019-03-09T09:12:08.818Z,5.73
2019-03-09T09:14:43.787Z,5.59
2019-03-09T09:17:21.267Z,5.58
2019-03-09T09:19:56.198Z,5.49
2019-03-09T09:22:31.346Z,5.64
2019-03-09T09:25:11.203Z,5.46
2019-03-09T09:27:52.699Z,5.41
2019-03-09T09:30:29.779Z,5.37
2019-03-09T09:33:10.283Z,5.31
2019-03-09T09:35:45.543Z,5.23
2019-03-09T09:38:20.802Z,5.12
2019-03-09T09:41:01.452Z,5.03
2019-03-09T09:43:37.591Z,4.93
2019-03-09T09:46:14.724Z,4.79
2019-03-09T09:48:53.219Z,4.84
2019-03-09T09:51:30.912Z,4.79
2019-03-09T09:54:16.780Z,4.68
2019-03-09T09:57:01.777Z,4.70
2019-03-09T09:59:46.964Z,4.66
2019-03-09T10:02:27.508Z,4.52
2019-03-09T10:05:09.613Z,4.46
2019-03-09T10:07:48.360Z,4.45
2019-03-09T10:10:24.961Z,4.40
2019-03-09T10:13:02.136Z,4.46
2019-03-09T10:15:39.398Z,4.42
2019-03-09T10:18:16.166Z,4.47
2019-03-09T10:20:51.324Z,4.41
2019-03-09T10:23:26.570Z,4.28
2019-03-09T10:26:08.101Z,4.15
2019-03-09T10:28:43.635Z,4.21
2019-03-09T10:31:20.562Z,4.12
2019-03-09T10:33:55.836Z,4.01
2019-03-09T10:36:31.119Z,4.02
2019-03-09T10:39:07.389Z,3.93
2019-03-09T10:41:48.149Z,3.84
2019-03-09T10:44:25.561Z,3.73
2019-03-09T10:47:02.409Z,3.63
2019-03-09T10:50:03.515Z,3.64
2019-03-09T10:52:41.530Z,3.80
2019-03-09T10:55:23.621Z,3.88
2019-03-09T10:58:03.225Z,3.68
2019-03-09T11:00:45.987Z,3.52
2019-03-09T11:03:24.428Z,3.33
2019-03-09T11:05:58.948Z,3.40
2019-03-09T11:08:37.249Z,3.08
2019-03-09T11:11:14.252Z,3.08
2019-03-09T11:13:52.224Z,3.19
2019-03-09T11:16:30.706Z,3.22
2019-03-09T11:19:11.962Z,3.21
2019-03-09T11:21:51.577Z,3.17
2019-03-09T11:24:26.651Z,3.24
2019-03-09T11:27:01.919Z,3.29
2019-03-09T11:29:39.009Z,3.29
2019-03-09T11:32:15.102Z,3.30
2019-03-09T11:34:52.643Z,3.26
2019-03-09T11:37:32.510Z,3.05
2019-03-09T11:40:07.760Z,3.02
2019-03-09T11:42:47.669Z,3.09
2019-03-09T11:45:27.894Z,3.10
2019-03-09T11:48:07.648Z,2.93
2019-03-09T11:50:44.684Z,2.87
2019-03-09T11:53:21.883Z,2.79
2019-03-09T11:56:00.294Z,2.71
2019-03-09T11:58:45.905Z,2.81
2019-03-09T12:01:21.906Z,2.73
2019-03-09T12:03:57.238Z,2.65
2019-03-09T12:06:34.613Z,2.54
2019-03-09T12:09:13.032Z,2.66
2019-03-09T12:14:41.615Z,2.63
2019-03-09T12:17:16.891Z,2.63
2019-03-09T12:19:57.853Z,2.59
2019-03-09T12:22:35.062Z,2.62
2019-03-09T12:25:12.430Z,2.68
2019-03-09T12:28:00.551Z,2.19
2019-03-09T12:30:35.949Z,2.15
2019-03-09T12:33:14.691Z,1.89
2019-03-09T12:35:50.268Z,1.80
2019-03-09T12:38:37.794Z,1.75
2019-03-09T12:41:15.358Z,1.48
2019-03-09T12:43:50.735Z,1.59
2019-03-09T12:46:27.969Z,1.51
2019-03-09T12:49:08.448Z,1.37
2019-03-09T12:51:45.076Z,1.25
2019-03-09T12:54:22.405Z,1.04
2019-03-09T12:56:58.491Z,1.04
2019-03-09T12:59:33.993Z,1.01
2019-03-09T13:02:11.342Z,0.99
2019-03-09T13:04:48.372Z,0.80
2019-03-09T13:07:24.365Z,0.91
2019-03-09T13:10:05.309Z,0.64
2019-03-09T13:12:41.459Z,0.69
2019-03-09T13:15:23.506Z,0.59
2019-03-09T13:20:52.734Z,0.33
2019-03-09T13:23:31.251Z,0.46
2019-03-09T13:26:17.384Z,0.41
2019-03-09T13:28:54.596Z,0.28
2019-03-09T13:34:13.123Z,0.38
2019-03-09T13:39:51.060Z,0.21
2019-03-09T13:42:31.991Z,0.39
2019-03-09T13:45:13.031Z,0.33
2019-03-09T13:47:50.444Z,0.27
2019-03-09T13:50:26.405Z,0.14
2019-03-09T13:53:03.652Z,0.25
2019-03-09T13:55:40.902Z,0.07
2019-03-09T13:58:21.794Z,0.04
2019-03-09T14:01:01.739Z,0.10
2019-03-09T14:03:47.101Z,0.03
2019-03-09T14:06:29.304Z,-0.10
2019-03-09T14:12:22.454Z,-0.27
2019-03-09T14:14:34.128Z,-0.28
2019-03-09T14:17:09.494Z,-0.25
2019-03-09T14:19:44.875Z,-0.31
2019-03-09T14:22:21.026Z,-0.27
2019-03-09T14:25:01.290Z,-0.38
2019-03-09T14:27:36.664Z,-0.46
2019-03-09T14:30:27.160Z,-0.54
2019-03-09T14:33:02.572Z,-0.37
2019-03-09T14:35:43.589Z,-0.46
2019-03-09T14:41:17.487Z,-0.50
2019-03-09T14:43:54.283Z,-0.48
2019-03-09T14:46:33.581Z,-0.53
2019-03-09T14:49:10.025Z,-0.56
2019-03-09T14:51:46.511Z,-0.44
2019-03-09T14:54:21.856Z,-0.48
2019-03-09T14:57:02.223Z,-0.58
2019-03-09T14:59:42.019Z,-0.63
2019-03-09T15:02:22.900Z,-0.69
2019-03-09T15:04:58.749Z,-0.83
2019-03-09T15:07:38.185Z,-0.91
2019-03-09T15:10:17.363Z,-1.01
2019-03-09T15:12:52.829Z,-0.91
2019-03-09T15:15:31.568Z,-1.12
2019-03-09T15:18:06.895Z,-1.12
2019-03-09T15:23:37.227Z,-1.27
2019-03-09T15:26:12.360Z,-1.18
2019-03-09T15:28:49.400Z,-1.07
2019-03-09T15:31:24.657Z,-1.13
2019-03-09T15:34:00.196Z,-1.20
2019-03-09T15:36:36.630Z,-1.23
2019-03-09T15:39:13.315Z,-1.21
2019-03-09T15:41:49.266Z,-1.22
2019-03-09T15:44:26.038Z,-1.31
2019-03-09T15:47:01.094Z,-1.10
2019-03-09T15:49:41.368Z,-1.18
2019-03-09T15:52:18.132Z,-1.12
2019-03-09T15:54:53.670Z,-1.15
2019-03-09T15:57:27.866Z,-1.21
2019-03-09T16:00:01.738Z,-1.27
2019-03-09T16:02:35.541Z,-1.30
2019-03-09T16:05:09.347Z,-1.24
2019-03-09T16:07:43.027Z,-1.29
2019-03-09T16:10:21.466Z,-1.52
2019-03-09T16:12:56.268Z,-1.54
2019-03-09T16:15:35.511Z,-1.55
2019-03-09T16:18:10.403Z,-1.55
2019-03-09T16:20:45.951Z,-1.67
2019-03-09T16:23:22.193Z,-1.73
2019-03-09T16:25:58.519Z,-1.67
2019-03-09T16:28:33.332Z,-1.56
2019-03-09T16:31:09.377Z,-1.55
2019-03-09T16:33:44.256Z,-1.61
2019-03-09T16:36:19.031Z,-1.65
2019-03-09T16:38:53.807Z,-1.71
2019-03-09T16:41:28.714Z,-1.87
2019-03-09T16:44:03.783Z,-2.12
2019-03-09T16:46:38.617Z,-2.00
2019-03-09T16:49:16.458Z,-2.01
2019-03-09T16:51:52.506Z,-2.11
2019-03-09T16:54:29.076Z,-2.05
2019-03-09T16:57:03.884Z,-2.03
2019-03-09T16:59:40.140Z,-2.06
2019-03-09T17:02:14.679Z,-2.05
2019-03-09T17:04:49.326Z,-2.11
2019-03-09T17:07:24.300Z,-2.09
2019-03-09T17:09:58.180Z,-2.09
2019-03-09T17:12:32.026Z,-2.19
2019-03-09T17:15:08.758Z,-2.10
2019-03-09T17:17:43.966Z,-2.09
2019-03-09T17:20:20.217Z,-2.14
2019-03-09T17:22:54.727Z,-2.20
2019-03-09T17:25:30.618Z,-2.16
2019-03-09T17:28:06.600Z,-2.22
2019-03-09T17:30:41.351Z,-2.26
2019-03-09T17:33:17.521Z,-2.21
2019-03-09T17:35:54.640Z,-2.29
2019-03-09T17:38:29.037Z,-2.29
2019-03-09T17:41:07.587Z,-2.44
2019-03-09T17:43:41.835Z,-2.42
2019-03-09T17:46:15.926Z,-2.51
2019-03-09T17:48:51.975Z,-2.37
2019-03-09T17:51:26.103Z,-2.59
2019-03-09T17:53:59.999Z,-2.57
2019-03-09T17:56:35.710Z,-2.52
2019-03-09T17:59:11.657Z,-2.41
2019-03-09T18:01:46.438Z,-2.41
2019-03-09T18:04:20.278Z,-2.43
2019-03-09T18:06:54.911Z,-2.50
2019-03-09T18:09:31.437Z,-2.71
2019-03-09T18:12:07.993Z,-2.74
2019-03-09T18:14:42.286Z,-2.75
2019-03-09T18:17:18.923Z,-2.85
2019-03-09T18:19:53.998Z,-3.07
2019-03-09T18:22:29.459Z,-2.99
2019-03-09T18:25:03.356Z,-2.92
2019-03-09T18:27:37.497Z,-3.01
2019-03-09T18:30:13.487Z,-2.99
2019-03-09T18:32:47.970Z,-2.82
2019-03-09T18:35:23.981Z,-2.90
2019-03-09T18:38:00.103Z,-2.96
2019-03-09T18:40:34.155Z,-3.04
2019-03-09T18:43:08.030Z,-3.14
2019-03-09T18:45:42.045Z,-2.97
2019-03-09T18:48:19.919Z,-3.09
2019-03-09T18:50:55.332Z,-3.07
2019-03-09T18:53:28.919Z,-3.05
2019-03-09T18:56:03.730Z,-3.07
2019-03-09T18:58:37.109Z,-3.08
2019-03-09T19:01:10.538Z,-3.12
2019-03-09T19:03:43.825Z,-3.09
2019-03-09T19:06:17.549Z,-3.00
2019-03-09T19:08:50.949Z,-2.99
2019-03-09T19:11:25.525Z,-2.94
2019-03-09T19:13:58.714Z,-3.00
2019-03-09T19:16:31.995Z,-2.81
2019-03-09T19:19:05.194Z,-2.91
2019-03-09T19:21:38.487Z,-2.91
2019-03-09T19:24:11.709Z,-2.83
2019-03-09T19:26:45.002Z,-2.85
2019-03-09T19:29:18.244Z,-2.91
2019-03-09T19:31:51.650Z,-2.84
2019-03-09T19:34:24.938Z,-2.87
2019-03-09T19:36:58.225Z,-2.86
2019-03-09T19:39:31.563Z,-2.85
2019-03-09T19:42:04.788Z,-2.98
2019-03-09T19:44:38.225Z,-2.94
2019-03-09T19:47:11.637Z,-3.02
2019-03-09T19:49:44.901Z,-3.14
2019-03-09T19:52:19.736Z,-2.96
2019-03-09T19:54:52.949Z,-3.04
2019-03-09T19:57:26.164Z,-2.99
2019-03-09T19:59:59.417Z,-2.90
2019-03-09T20:02:34.293Z,-3.11
2019-03-09T20:05:09.405Z,-3.08
2019-03-09T20:07:42.862Z,-3.16
2019-03-09T20:10:23.801Z,-3.30
2019-03-09T20:12:58.541Z,-3.37
2019-03-09T20:15:32.061Z,-3.42
2019-03-09T20:18:05.384Z,-3.48
2019-03-09T20:20:38.673Z,-3.51
2019-03-09T20:23:13.219Z,-3.48
2019-03-09T20:25:46.632Z,-3.48
2019-03-09T20:28:19.989Z,-3.49
2019-03-09T20:30:53.281Z,-3.53
2019-03-09T20:33:26.600Z,-3.57
2019-03-09T20:35:59.880Z,-3.62
2019-03-09T20:38:33.063Z,-3.71
2019-03-09T20:41:08.071Z,-3.70
2019-03-09T20:43:41.367Z,-3.74
2019-03-09T20:46:14.585Z,-3.62
2019-03-09T20:48:49.389Z,-3.70
2019-03-09T20:51:22.786Z,-3.73
2019-03-09T20:53:56.086Z,-3.63
2019-03-09T20:56:29.545Z,-3.81
2019-03-09T20:59:02.899Z,-3.78
2019-03-09T21:04:17.968Z,-3.75
2019-03-09T21:06:52.153Z,-3.77
2019-03-09T21:09:25.386Z,-3.66
2019-03-09T21:11:58.695Z,-3.79
2019-03-09T21:14:33.837Z,-3.82
2019-03-09T21:17:07.392Z,-3.81
2019-03-09T21:19:40.588Z,-3.73
2019-03-09T21:22:14.047Z,-3.69
2019-03-09T21:24:47.301Z,-3.75
2019-03-09T21:27:20.562Z,-3.78
2019-03-09T21:29:53.869Z,-3.84
2019-03-09T21:32:27.135Z,-3.85
2019-03-09T21:35:03.817Z,-3.81
2019-03-09T21:37:37.227Z,-4.02
2019-03-09T21:40:11.124Z,-3.94
2019-03-09T21:42:44.385Z,-4.05
2019-03-09T21:45:18.136Z,-3.96
2019-03-09T21:47:51.506Z,-4.08
2019-03-09T21:50:24.943Z,-4.14
2019-03-09T21:52:59.202Z,-4.03
2019-03-09T21:55:32.587Z,-4.02
2019-03-09T21:58:05.932Z,-4.02
2019-03-09T22:00:39.255Z,-4.08
2019-03-09T22:03:12.680Z,-4.08
2019-03-09T22:05:45.907Z,-4.03
2019-03-09T22:08:19.271Z,-4.02
2019-03-09T22:10:53.164Z,-4.05
2019-03-09T22:13:26.515Z,-4.08
2019-03-09T22:15:59.754Z,-4.04
2019-03-09T22:18:36.296Z,-3.96
2019-03-09T22:21:11.850Z,-3.81
2019-03-09T22:23:44.465Z,-3.70
2019-03-09T22:26:18.117Z,-3.76
2019-03-09T22:28:51.460Z,-3.84
2019-03-09T22:31:28.124Z,-3.91
2019-03-09T22:34:06.230Z,-4.04
2019-03-09T22:36:40.765Z,-3.89
2019-03-09T22:39:15.322Z,-4.22
2019-03-09T22:41:50.228Z,-4.13
2019-03-09T22:44:23.548Z,-4.00
2019-03-09T22:46:58.906Z,-3.72
2019-03-09T22:49:32.241Z,-3.73
2019-03-09T22:52:05.506Z,-3.77
2019-03-09T22:54:39.166Z,-3.68
2019-03-09T22:57:12.569Z,-3.49
2019-03-09T22:59:45.894Z,-3.56
2019-03-09T23:02:20.578Z,-3.67
2019-03-09T23:04:58.139Z,-3.33
2019-03-09T23:07:31.433Z,-3.18
2019-03-09T23:10:06.281Z,-3.02
2019-03-09T23:12:42.274Z,-2.82
2019-03-09T23:15:19.835Z,-2.70
2019-03-09T23:17:53.929Z,-2.66
2019-03-09T23:20:28.166Z,-2.13
2019-03-09T23:23:03.189Z,-1.83
2019-03-09T23:25:38.447Z,-1.47
2019-03-09T23:28:12.303Z,-1.13
2019-03-09T23:30:46.002Z,-1.12
2019-03-09T23:33:21.553Z,-1.10
2019-03-09T23:35:55.904Z,-0.91
2019-03-09T23:38:30.686Z,-0.18
2019-03-09T23:41:06.132Z,0.32
2019-03-09T23:43:40.416Z,-0.12
2019-03-09T23:46:14.525Z,0.35
2019-03-09T23:48:50.335Z,0.98
2019-03-09T23:51:25.826Z,1.85
2019-03-09T23:54:01.221Z,1.74
2019-03-09T23:56:35.215Z,1.79
2019-03-09T23:59:17.833Z,2.29
